createdAt,value
2018-03-01T00:01:07.115Z,22.50
2018-03-01T00:03:35.422Z,24.42
2018-03-01T00:06:03.834Z,23.58
2018-03-01T00:08:32.945Z,22.95
2018-03-01T00:11:01.322Z,21.92
2018-03-01T00:13:29.742Z,23.92
2018-03-01T00:15:58.075Z,22.37
2018-03-01T00:18:26.421Z,25.25
2018-03-01T00:20:54.843Z,26.00
2018-03-01T00:23:23.183Z,21.95
2018-03-01T00:25:52.310Z,23.12
2018-03-01T00:28:20.722Z,22.20
2018-03-01T00:30:49.083Z,24.17
2018-03-01T00:33:17.448Z,23.02
2018-03-01T00:35:45.871Z,21.67
2018-03-01T00:38:14.182Z,24.85
2018-03-01T00:40:43.302Z,23.52
2018-03-01T00:43:11.722Z,23.00
2018-03-01T00:45:40.125Z,23.30
2018-03-01T00:48:09.302Z,24.20
2018-03-01T00:50:37.723Z,24.40
2018-03-01T00:53:06.082Z,22.75
2018-03-01T00:55:35.183Z,23.23
2018-03-01T00:58:04.328Z,22.73
2018-03-01T01:00:32.695Z,23.67
2018-03-01T01:03:01.095Z,24.98
2018-03-01T01:05:29.510Z,24.77
2018-03-01T01:07:58.579Z,22.13
2018-03-01T01:10:26.920Z,24.30
2018-03-01T01:12:55.322Z,25.30
2018-03-01T01:15:23.656Z,24.40
2018-03-01T01:17:52.106Z,21.50
2018-03-01T01:20:20.535Z,23.38
2018-03-01T01:22:48.863Z,23.40
2018-03-01T01:25:17.185Z,21.87
2018-03-01T01:27:45.562Z,24.58
2018-03-01T01:30:13.870Z,25.05
2018-03-01T01:32:42.203Z,25.10
2018-03-01T01:35:10.623Z,25.27
2018-03-01T01:37:39.043Z,25.12
2018-03-01T01:40:07.435Z,27.10
2018-03-01T01:42:35.822Z,27.08
2018-03-01T01:45:04.237Z,25.45
2018-03-01T01:47:32.583Z,26.62
2018-03-01T01:50:01.087Z,25.77
2018-03-01T01:52:29.442Z,25.25
2018-03-01T01:54:57.799Z,24.20
2018-03-01T01:57:26.942Z,28.87
2018-03-01T01:59:55.315Z,25.62
2018-03-01T02:02:24.537Z,25.10
2018-03-01T02:04:52.857Z,25.30
2018-03-01T02:07:21.140Z,29.12
2018-03-01T02:09:49.466Z,24.95
2018-03-01T02:12:17.788Z,25.62
2018-03-01T02:14:46.077Z,26.85
2018-03-01T02:17:14.436Z,30.42
2018-03-01T02:19:42.712Z,24.58
2018-03-01T02:22:11.039Z,25.48
2018-03-01T02:24:39.439Z,24.37
2018-03-01T02:27:07.756Z,26.50
2018-03-01T02:29:36.040Z,27.13
2018-03-01T02:32:04.380Z,22.77
2018-03-01T02:34:32.737Z,26.95
2018-03-01T02:37:01.049Z,28.85
2018-03-01T02:39:29.417Z,28.33
2018-03-01T02:41:57.757Z,26.85
2018-03-01T02:44:26.878Z,28.62
2018-03-01T02:46:55.183Z,27.13
2018-03-01T02:49:23.484Z,23.30
2018-03-01T02:51:51.824Z,24.83
2018-03-01T02:54:20.173Z,26.65
2018-03-01T02:56:48.459Z,27.25
2018-03-01T02:59:16.793Z,25.98
2018-03-01T03:01:45.100Z,23.02
2018-03-01T03:04:13.483Z,25.00
2018-03-01T03:06:41.816Z,26.50
2018-03-01T03:09:10.138Z,27.48
2018-03-01T03:11:38.476Z,24.48
2018-03-01T03:14:06.785Z,24.63
2018-03-01T03:16:35.084Z,24.70
2018-03-01T03:19:03.445Z,24.70
2018-03-01T03:21:31.739Z,25.65
2018-03-01T03:24:00.086Z,26.73
2018-03-01T03:26:28.404Z,26.90
2018-03-01T03:28:56.689Z,25.12
2018-03-01T03:31:25.009Z,28.55
2018-03-01T03:33:54.098Z,25.52
2018-03-01T03:36:23.208Z,23.67
2018-03-01T03:38:52.260Z,24.45
2018-03-01T03:41:20.560Z,58.17
2018-03-01T03:43:49.681Z,27.00
2018-03-01T03:46:17.979Z,21.37
2018-03-01T03:48:46.365Z,23.25
2018-03-01T03:51:14.708Z,17.17
2018-03-01T03:53:43.024Z,16.33
2018-03-01T03:56:11.362Z,28.02
2018-03-01T03:58:39.701Z,26.35
2018-03-01T04:01:08.033Z,22.40
2018-03-01T04:03:36.403Z,23.87
2018-03-01T04:06:04.733Z,26.12
2018-03-01T04:08:33.046Z,27.83
2018-03-01T04:11:01.377Z,22.65
2018-03-01T04:13:29.700Z,26.62
2018-03-01T04:15:58.752Z,21.92
2018-03-01T04:18:27.074Z,22.20
2018-03-01T04:20:55.377Z,23.02
2018-03-01T04:23:23.689Z,22.62
2018-03-01T04:25:52.024Z,26.33
2018-03-01T04:28:20.337Z,24.15
2018-03-01T04:30:48.620Z,21.95
2018-03-01T04:33:16.941Z,24.02
2018-03-01T04:35:45.250Z,24.10
2018-03-01T04:38:13.600Z,20.35
2018-03-01T04:40:41.893Z,25.80
2018-03-01T04:43:10.188Z,25.58
2018-03-01T04:45:38.502Z,17.70
2018-03-01T04:48:06.785Z,24.10
2018-03-01T04:50:35.923Z,25.00
2018-03-01T04:53:04.245Z,23.73
2018-03-01T04:55:33.316Z,26.10
2018-03-01T04:58:01.646Z,24.90
2018-03-01T05:00:30.010Z,27.27
2018-03-01T05:03:01.208Z,26.95
2018-03-01T05:05:29.501Z,20.83
2018-03-01T05:07:57.785Z,25.10
2018-03-01T05:10:26.087Z,15.80
2018-03-01T05:12:55.205Z,24.17
2018-03-01T05:15:23.552Z,24.50
2018-03-01T05:17:52.630Z,26.60
2018-03-01T05:20:20.980Z,22.02
2018-03-01T05:22:49.309Z,21.60
2018-03-01T05:25:18.374Z,26.20
2018-03-01T05:27:46.765Z,21.85
2018-03-01T05:30:15.815Z,20.77
2018-03-01T05:32:44.128Z,23.42
2018-03-01T05:35:13.341Z,18.10
2018-03-01T05:37:42.440Z,18.52
2018-03-01T05:40:11.612Z,24.58
2018-03-01T05:42:39.908Z,18.25
2018-03-01T05:45:09.037Z,20.95
2018-03-01T05:47:37.403Z,20.73
2018-03-01T05:50:05.728Z,23.92
2018-03-01T05:52:34.872Z,17.02
2018-03-01T05:55:03.212Z,21.05
2018-03-01T05:57:32.312Z,22.75
2018-03-01T06:00:00.824Z,23.35
2018-03-01T06:02:29.306Z,21.15
2018-03-01T06:04:57.678Z,25.50
2018-03-01T06:07:26.752Z,21.10
2018-03-01T06:09:55.166Z,22.58
2018-03-01T06:12:23.501Z,23.40
2018-03-01T06:14:51.837Z,22.50
2018-03-01T06:17:20.201Z,23.27
2018-03-01T06:19:48.624Z,20.10
2018-03-01T06:22:16.932Z,27.05
2018-03-01T06:24:46.017Z,20.70
2018-03-01T06:27:15.329Z,9.52
2018-03-01T06:29:44.018Z,16.58
2018-03-01T06:32:12.447Z,21.87
2018-03-01T06:34:40.761Z,22.95
2018-03-01T06:37:09.897Z,21.52
2018-03-01T06:39:38.240Z,22.80
2018-03-01T06:42:07.615Z,20.98
2018-03-01T06:44:35.898Z,21.42
2018-03-01T06:47:04.188Z,19.40
2018-03-01T06:49:33.309Z,14.15
2018-03-01T06:52:03.037Z,13.05
2018-03-01T06:54:31.408Z,10.82
2018-03-01T06:56:59.740Z,23.10
2018-03-01T06:59:28.053Z,22.37
2018-03-01T07:01:56.375Z,19.70
2018-03-01T07:04:24.685Z,19.87
2018-03-01T07:06:53.824Z,15.02
2018-03-01T07:09:22.184Z,16.85
2018-03-01T07:11:50.497Z,18.73
2018-03-01T07:14:18.855Z,23.08
2018-03-01T07:16:47.153Z,18.67
2018-03-01T07:19:15.605Z,19.90
2018-03-01T07:21:43.985Z,16.60
2018-03-01T07:24:12.386Z,15.60
2018-03-01T07:26:40.777Z,21.17
2018-03-01T07:29:09.105Z,25.58
2018-03-01T07:31:37.496Z,19.30
2018-03-01T07:34:06.354Z,16.52
2018-03-01T07:36:35.520Z,14.03
2018-03-01T07:39:03.952Z,11.00
2018-03-01T07:41:32.533Z,13.23
2018-03-01T07:44:01.486Z,13.60
2018-03-01T07:46:29.788Z,9.97
2018-03-01T07:48:59.263Z,14.50
2018-03-01T07:51:27.632Z,18.63
2018-03-01T07:53:55.929Z,18.63
2018-03-01T07:56:25.085Z,12.90
2018-03-01T07:58:53.396Z,9.83
2018-03-01T08:01:21.727Z,11.80
2018-03-01T08:03:50.133Z,11.73
2018-03-01T08:06:18.513Z,9.63
2018-03-01T08:08:47.942Z,9.30
2018-03-01T08:11:17.095Z,13.23
2018-03-01T08:13:45.436Z,11.07
2018-03-01T08:16:14.203Z,13.03
2018-03-01T08:18:43.291Z,13.17
2018-03-01T08:21:11.637Z,11.17
2018-03-01T08:23:39.988Z,10.67
2018-03-01T08:26:08.307Z,13.13
2018-03-01T08:28:36.668Z,13.77
2018-03-01T08:31:05.780Z,13.30
2018-03-01T08:33:34.149Z,12.47
2018-03-01T08:36:02.462Z,16.30
2018-03-01T08:38:31.533Z,8.23
2018-03-01T08:40:59.872Z,15.03
2018-03-01T08:43:28.214Z,10.63
2018-03-01T08:45:57.368Z,13.77
2018-03-01T08:48:26.378Z,9.57
2018-03-01T08:50:54.720Z,9.97
2018-03-01T08:53:23.057Z,15.13
2018-03-01T08:55:52.168Z,9.57
2018-03-01T08:58:20.533Z,9.33
2018-03-01T09:00:49.645Z,10.37
2018-03-01T09:03:17.980Z,10.13
2018-03-01T09:05:46.346Z,8.10
2018-03-01T09:08:14.669Z,10.73
2018-03-01T09:10:43.116Z,7.50
2018-03-01T09:13:11.459Z,8.63
2018-03-01T09:15:40.533Z,9.23
2018-03-01T09:18:08.885Z,10.33
2018-03-01T09:20:38.046Z,9.57
2018-03-01T09:23:06.426Z,10.07
2018-03-01T09:25:34.756Z,13.77
2018-03-01T09:28:03.069Z,10.60
2018-03-01T09:30:31.375Z,9.53
2018-03-01T09:32:59.703Z,11.20
2018-03-01T09:35:28.108Z,9.23
2018-03-01T09:37:56.818Z,11.20
2018-03-01T09:40:25.211Z,7.47
2018-03-01T09:42:53.553Z,8.37
2018-03-01T09:45:21.946Z,10.20
2018-03-01T09:47:50.298Z,10.27
2018-03-01T09:50:19.389Z,8.53
2018-03-01T09:52:47.731Z,11.60
2018-03-01T09:55:16.085Z,8.23
2018-03-01T09:57:45.737Z,11.40
2018-03-01T10:00:14.097Z,7.20
2018-03-01T10:02:42.447Z,7.27
2018-03-01T10:05:10.812Z,9.87
2018-03-01T10:07:39.188Z,10.73
2018-03-01T10:10:07.497Z,11.37
2018-03-01T10:12:35.865Z,7.77
2018-03-01T10:15:05.086Z,8.00
2018-03-01T10:17:33.471Z,8.80
2018-03-01T10:20:01.832Z,8.67
2018-03-01T10:22:30.146Z,11.40
2018-03-01T10:24:58.515Z,9.47
2018-03-01T10:27:26.877Z,12.00
2018-03-01T10:29:55.186Z,10.37
2018-03-01T10:32:23.510Z,9.13
2018-03-01T10:34:51.850Z,11.87
2018-03-01T10:37:20.225Z,9.93
2018-03-01T10:39:48.601Z,11.83
2018-03-01T10:42:16.900Z,18.57
2018-03-01T10:44:46.240Z,8.67
2018-03-01T10:47:15.312Z,9.10
2018-03-01T10:49:43.732Z,6.60
2018-03-01T10:52:12.072Z,9.57
2018-03-01T10:54:41.172Z,9.27
2018-03-01T10:57:09.504Z,11.07
2018-03-01T10:59:37.892Z,14.30
2018-03-01T11:02:06.247Z,8.50
2018-03-01T11:04:34.548Z,8.47
2018-03-01T11:07:03.565Z,6.60
2018-03-01T11:09:32.672Z,6.17
2018-03-01T11:12:01.832Z,6.53
2018-03-01T11:14:30.118Z,6.93
2018-03-01T11:17:01.485Z,7.23
2018-03-01T11:19:29.911Z,8.53
2018-03-01T11:21:58.237Z,7.13
2018-03-01T11:24:26.647Z,7.77
2018-03-01T11:26:54.966Z,8.63
2018-03-01T11:29:23.297Z,15.50
2018-03-01T11:31:51.710Z,6.03
2018-03-01T11:34:20.034Z,6.73
2018-03-01T11:36:49.062Z,6.53
2018-03-01T11:39:17.428Z,6.43
2018-03-01T11:41:45.818Z,5.50
2018-03-01T11:44:14.149Z,6.90
2018-03-01T11:46:42.465Z,6.30
2018-03-01T11:49:10.801Z,7.63
2018-03-01T11:51:39.202Z,6.97
2018-03-01T11:54:08.271Z,10.03
2018-03-01T11:56:36.606Z,7.17
2018-03-01T11:59:04.934Z,6.37
2018-03-01T12:01:34.026Z,5.80
2018-03-01T12:04:02.348Z,4.07
2018-03-01T12:06:30.652Z,4.30
2018-03-01T12:08:58.988Z,5.03
2018-03-01T12:11:27.270Z,5.17
2018-03-01T12:13:55.556Z,4.80
2018-03-01T12:16:23.906Z,6.27
2018-03-01T12:18:52.948Z,6.07
2018-03-01T12:21:21.259Z,6.53
2018-03-01T12:23:50.319Z,5.20
2018-03-01T12:26:18.598Z,6.80
2018-03-01T12:28:46.905Z,4.27
2018-03-01T12:31:15.972Z,6.83
2018-03-01T12:33:45.247Z,3.90
2018-03-01T12:36:13.505Z,7.90
2018-03-01T12:38:41.786Z,7.20
2018-03-01T12:41:10.092Z,6.13
2018-03-01T12:43:38.411Z,4.03
2018-03-01T12:46:07.578Z,5.20
2018-03-01T12:48:35.769Z,6.53
2018-03-01T12:51:04.092Z,4.30
2018-03-01T12:53:32.449Z,3.87
2018-03-01T12:56:01.505Z,6.03
2018-03-01T12:58:29.874Z,5.27
2018-03-01T13:00:58.179Z,4.87
2018-03-01T13:03:26.885Z,3.80
2018-03-01T13:05:56.003Z,21.53
2018-03-01T13:08:24.353Z,24.97
2018-03-01T13:10:53.520Z,18.30
2018-03-01T13:13:22.656Z,21.17
2018-03-01T13:15:51.043Z,24.77
2018-03-01T13:18:19.367Z,19.27
2018-03-01T13:20:47.709Z,19.47
2018-03-01T13:23:16.090Z,19.33
2018-03-01T13:25:44.400Z,20.30
2018-03-01T13:28:12.716Z,13.60
2018-03-01T13:30:41.830Z,25.43
2018-03-01T13:33:15.540Z,20.80
2018-03-01T13:35:43.910Z,18.03
2018-03-01T13:38:12.234Z,19.50
2018-03-01T13:40:41.384Z,21.77
2018-03-01T13:43:12.565Z,24.60
2018-03-01T13:45:52.746Z,25.97
2018-03-01T13:48:21.874Z,26.83
2018-03-01T13:50:50.206Z,20.40
2018-03-01T13:53:18.611Z,26.13
2018-03-01T13:55:46.969Z,21.30
2018-03-01T13:58:15.317Z,21.77
2018-03-01T14:00:44.566Z,20.03
2018-03-01T14:03:12.909Z,23.67
2018-03-01T14:05:43.197Z,23.43
2018-03-01T14:08:11.499Z,27.50
2018-03-01T14:10:39.866Z,26.50
2018-03-01T14:13:11.776Z,22.90
2018-03-01T14:15:41.684Z,23.50
2018-03-01T14:18:27.359Z,23.40
2018-03-01T14:24:23.800Z,26.03
2018-03-01T14:26:54.077Z,24.30
2018-03-01T14:29:27.981Z,23.13
2018-03-01T14:31:57.212Z,22.87
2018-03-01T14:34:25.533Z,24.40
2018-03-01T14:36:54.627Z,27.30
2018-03-01T14:39:23.700Z,26.17
2018-03-01T14:41:52.026Z,26.13
2018-03-01T14:44:20.366Z,27.10
2018-03-01T14:46:49.476Z,28.23
2018-03-01T14:49:18.577Z,23.33
2018-03-01T14:51:47.667Z,26.40
2018-03-01T14:54:16.923Z,22.63
2018-03-01T14:56:45.277Z,28.30
2018-03-01T14:59:13.606Z,21.60
2018-03-01T15:01:41.932Z,25.73
2018-03-01T15:04:10.293Z,22.97
2018-03-01T15:06:38.816Z,22.17
2018-03-01T15:09:07.200Z,25.00
2018-03-01T15:11:35.492Z,25.83
2018-03-01T15:14:03.794Z,23.73
2018-03-01T15:16:32.893Z,23.20
2018-03-01T15:19:01.220Z,25.07
2018-03-01T15:21:29.585Z,21.63
2018-03-01T15:23:58.065Z,27.80
2018-03-01T15:26:26.394Z,25.33
2018-03-01T15:28:55.528Z,24.80
2018-03-01T15:31:23.885Z,28.15
2018-03-01T15:33:52.262Z,27.80
2018-03-01T15:36:20.556Z,24.52
2018-03-01T15:38:48.878Z,28.92
2018-03-01T15:41:17.208Z,24.17
2018-03-01T15:43:45.556Z,21.53
2018-03-01T15:46:13.930Z,28.30
2018-03-01T15:48:43.165Z,25.17
2018-03-01T15:51:11.596Z,23.67
2018-03-01T15:53:40.720Z,23.60
2018-03-01T15:56:09.163Z,25.70
2018-03-01T15:58:37.687Z,27.10
2018-03-01T16:01:06.950Z,23.53
2018-03-01T16:03:37.146Z,25.92
2018-03-01T16:06:05.623Z,24.70
2018-03-01T16:08:34.052Z,22.45
2018-03-01T16:11:03.135Z,23.50
2018-03-01T16:13:32.253Z,28.35
2018-03-01T16:16:00.576Z,22.33
2018-03-01T16:18:28.999Z,25.08
2018-03-01T16:20:58.083Z,27.27
2018-03-01T16:23:27.250Z,25.67
2018-03-01T16:25:55.766Z,24.73
2018-03-01T16:28:25.056Z,28.25
2018-03-01T16:30:54.325Z,23.50
2018-03-01T16:33:22.628Z,24.35
2018-03-01T16:35:51.737Z,26.17
2018-03-01T16:38:20.854Z,27.43
2018-03-01T16:40:49.197Z,25.98
2018-03-01T16:43:18.312Z,28.35
2018-03-01T16:45:46.720Z,22.48
2018-03-01T16:48:15.100Z,20.70
2018-03-01T16:50:44.411Z,28.00
2018-03-01T16:53:13.623Z,19.83
2018-03-01T16:55:42.012Z,21.58
2018-03-01T16:58:10.329Z,27.65
2018-03-01T17:00:40.025Z,21.15
2018-03-01T17:03:09.967Z,26.10
2018-03-01T17:05:39.439Z,29.75
2018-03-01T17:08:09.955Z,29.98
2018-03-01T17:10:40.007Z,28.05
2018-03-01T17:13:08.986Z,27.80
2018-03-01T17:15:41.031Z,34.28
2018-03-01T17:18:10.673Z,31.98
2018-03-01T17:20:38.988Z,33.88
2018-03-01T17:23:07.307Z,26.55
2018-03-01T17:25:36.381Z,29.92
2018-03-01T17:28:04.862Z,33.33
2018-03-01T17:30:34.064Z,32.15
2018-03-01T17:33:02.583Z,33.70
2018-03-01T17:35:30.886Z,35.33
2018-03-01T17:37:59.200Z,36.92
2018-03-01T17:40:27.486Z,38.47
2018-03-01T17:42:57.434Z,31.17
2018-03-01T17:45:25.828Z,33.78
2018-03-01T17:47:54.188Z,28.73
2018-03-01T17:50:22.611Z,20.50
2018-03-01T17:52:51.042Z,33.17
2018-03-01T17:55:19.466Z,33.53
2018-03-01T17:57:47.903Z,37.15
2018-03-01T18:00:16.383Z,31.37
2018-03-01T18:02:44.987Z,30.33
2018-03-01T18:05:13.287Z,31.17
2018-03-01T18:07:41.681Z,31.27
2018-03-01T18:10:10.763Z,23.27
2018-03-01T18:12:39.263Z,34.83
2018-03-01T18:15:07.625Z,32.22
2018-03-01T18:17:36.106Z,32.33
2018-03-01T18:20:04.983Z,31.27
2018-03-01T18:22:33.325Z,33.58
2018-03-01T18:25:01.619Z,33.33
2018-03-01T18:27:30.055Z,37.00
2018-03-01T18:29:59.136Z,28.27
2018-03-01T18:32:27.602Z,31.92
2018-03-01T18:34:55.922Z,29.80
2018-03-01T18:37:24.239Z,58.55
2018-03-01T18:39:52.586Z,31.58
2018-03-01T18:42:21.029Z,46.97
2018-03-01T18:44:49.385Z,35.55
2018-03-01T18:47:17.831Z,35.13
2018-03-01T18:49:46.158Z,33.83
2018-03-01T18:52:14.480Z,29.58
2018-03-01T18:54:42.898Z,34.28
2018-03-01T18:57:11.186Z,30.83
2018-03-01T18:59:39.517Z,30.70
2018-03-01T19:02:07.871Z,27.52
2018-03-01T19:04:37.080Z,29.25
2018-03-01T19:07:05.443Z,29.92
2018-03-01T19:09:34.541Z,30.05
2018-03-01T19:12:03.781Z,31.25
2018-03-01T19:14:32.108Z,32.70
2018-03-01T19:17:02.643Z,24.55
2018-03-01T19:19:31.083Z,33.83
2018-03-01T19:22:01.762Z,31.70
2018-03-01T19:24:30.944Z,34.70
2018-03-01T19:27:00.097Z,37.00
2018-03-01T19:29:28.448Z,31.58
2018-03-01T19:31:58.397Z,31.00
2018-03-01T19:34:26.775Z,33.80
2018-03-01T19:36:55.223Z,31.37
2018-03-01T19:39:23.543Z,30.48
2018-03-01T19:41:51.962Z,29.40
2018-03-01T19:44:20.384Z,29.33
2018-03-01T19:46:48.783Z,28.20
2018-03-01T19:49:17.301Z,31.52
2018-03-01T19:51:46.548Z,31.77
2018-03-01T19:54:14.923Z,30.25
2018-03-01T19:56:43.328Z,30.00
2018-03-01T19:59:11.857Z,32.95
2018-03-01T20:01:40.383Z,29.55
2018-03-01T20:04:10.488Z,30.33
2018-03-01T20:06:38.814Z,33.17
2018-03-01T20:09:08.084Z,29.10
2018-03-01T20:11:36.571Z,28.12
2018-03-01T20:14:04.963Z,31.12
2018-03-01T20:16:34.062Z,30.60
2018-03-01T20:19:03.184Z,32.80
2018-03-01T20:21:31.643Z,30.77
2018-03-01T20:24:00.718Z,31.80
2018-03-01T20:26:29.143Z,32.58
2018-03-01T20:28:57.454Z,28.17
2018-03-01T20:31:26.825Z,30.37
2018-03-01T20:33:55.264Z,28.75
2018-03-01T20:36:24.407Z,34.22
2018-03-01T20:38:52.847Z,28.48
2018-03-01T20:41:21.945Z,30.75
2018-03-01T20:43:50.385Z,30.27
2018-03-01T20:46:18.741Z,29.23
2018-03-01T20:48:47.045Z,30.30
2018-03-01T20:51:15.332Z,31.30
2018-03-01T20:53:45.489Z,30.73
2018-03-01T20:56:14.567Z,30.50
2018-03-01T20:58:43.668Z,31.40
2018-03-01T21:01:11.995Z,31.27
2018-03-01T21:03:40.249Z,30.40
2018-03-01T21:06:08.535Z,36.03
2018-03-01T21:08:37.648Z,34.20
2018-03-01T21:11:05.979Z,34.22
2018-03-01T21:13:34.289Z,31.58
2018-03-01T21:16:02.617Z,32.40
2018-03-01T21:18:30.947Z,32.53
2018-03-01T21:20:59.265Z,32.05
2018-03-01T21:23:28.348Z,31.65
2018-03-01T21:25:56.718Z,30.67
2018-03-01T21:28:25.123Z,31.42
2018-03-01T21:30:53.425Z,31.50
2018-03-01T21:33:21.748Z,33.22
2018-03-01T21:35:50.073Z,30.70
2018-03-01T21:38:18.389Z,32.53
2018-03-01T21:40:46.736Z,31.12
2018-03-01T21:43:15.074Z,30.83
2018-03-01T21:45:44.188Z,32.50
2018-03-01T21:48:12.528Z,29.12
2018-03-01T21:50:40.928Z,32.38
2018-03-01T21:53:10.010Z,30.90
2018-03-01T21:55:38.314Z,32.58
2018-03-01T21:58:06.644Z,32.90
2018-03-01T22:00:34.960Z,33.25
2018-03-01T22:03:04.153Z,33.50
2018-03-01T22:05:33.205Z,32.70
2018-03-01T22:08:01.614Z,33.22
2018-03-01T22:10:30.664Z,33.35
2018-03-01T22:12:59.939Z,30.40
2018-03-01T22:15:28.238Z,31.98
2018-03-01T22:17:56.604Z,34.30
2018-03-01T22:20:24.905Z,29.85
2018-03-01T22:22:53.216Z,29.63
2018-03-01T22:25:21.520Z,34.70
2018-03-01T22:27:49.812Z,33.42
2018-03-01T22:30:18.165Z,32.40
2018-03-01T22:32:47.226Z,33.15
2018-03-01T22:35:15.536Z,33.08
2018-03-01T22:37:43.950Z,31.75
2018-03-01T22:40:13.100Z,34.45
2018-03-01T22:42:42.177Z,31.90
2018-03-01T22:45:10.485Z,32.97
2018-03-01T22:47:39.674Z,35.38
2018-03-01T22:50:09.572Z,29.65
2018-03-01T22:52:37.865Z,31.70
2018-03-01T22:55:06.951Z,35.17
2018-03-01T22:57:35.266Z,31.27
2018-03-01T23:00:03.685Z,32.50
2018-03-01T23:02:31.965Z,36.05
2018-03-01T23:05:00.366Z,33.53
2018-03-01T23:07:29.469Z,35.13
2018-03-01T23:09:58.535Z,32.17
2018-03-01T23:12:26.885Z,30.25
2018-03-01T23:14:55.180Z,32.47
2018-03-01T23:17:23.496Z,31.55
2018-03-01T23:19:52.561Z,33.28
2018-03-01T23:22:21.860Z,34.83
2018-03-01T23:24:50.132Z,32.58
2018-03-01T23:27:18.446Z,34.40
2018-03-01T23:29:46.722Z,32.05
2018-03-01T23:32:15.789Z,35.08
2018-03-01T23:34:44.113Z,33.30
2018-03-01T23:37:12.413Z,38.22
2018-03-01T23:39:40.756Z,31.70
2018-03-01T23:42:09.097Z,33.72
2018-03-01T23:44:37.468Z,33.17
2018-03-01T23:47:05.771Z,32.20
2018-03-01T23:49:34.865Z,34.47
2018-03-01T23:52:03.948Z,33.95
2018-03-01T23:54:33.003Z,33.75
2018-03-01T23:57:01.266Z,34.88
2018-03-01T23:59:29.549Z,33.78
